createdAt,value
2019-04-01T00:00:11.245Z,4.10
2019-04-01T00:02:43.940Z,4.10
2019-04-01T00:05:11.529Z,4.10
2019-04-01T00:07:38.566Z,4.00
2019-04-01T00:10:05.674Z,4.00
2019-04-01T00:12:33.040Z,4.00
2019-04-01T00:15:00.334Z,4.00
2019-04-01T00:17:27.491Z,4.00
2019-04-01T00:19:54.529Z,4.00
2019-04-01T00:22:22.033Z,4.00
2019-04-01T00:24:49.127Z,3.90
2019-04-01T00:27:16.382Z,4.00
2019-04-01T00:29:43.554Z,3.90
2019-04-01T00:32:10.653Z,3.90
2019-04-01T00:34:37.732Z,3.90
2019-04-01T00:37:05.077Z,3.90
2019-04-01T00:39:32.299Z,3.90
2019-04-01T00:42:22.575Z,3.90
2019-04-01T00:44:49.660Z,3.90
2019-04-01T00:47:16.661Z,3.80
2019-04-01T00:49:43.751Z,3.80
2019-04-01T00:52:10.892Z,3.80
2019-04-01T00:54:38.058Z,3.80
2019-04-01T00:57:05.368Z,3.80
2019-04-01T00:59:32.730Z,3.70
2019-04-01T01:01:59.816Z,3.70
2019-04-01T01:04:27.359Z,3.70
2019-04-01T01:06:54.365Z,3.70
2019-04-01T01:09:21.666Z,3.70
2019-04-01T01:11:48.864Z,3.70
2019-04-01T01:14:16.082Z,3.70
2019-04-01T01:16:43.100Z,3.60
2019-04-01T01:19:10.138Z,3.60
2019-04-01T01:21:37.245Z,3.70
2019-04-01T01:24:04.246Z,3.60
2019-04-01T01:26:31.374Z,3.60
2019-04-01T01:28:58.454Z,3.60
2019-04-01T01:31:25.568Z,3.60
2019-04-01T01:33:52.806Z,3.50
2019-04-01T01:36:20.130Z,3.50
2019-04-01T01:38:47.152Z,3.50
2019-04-01T01:41:14.277Z,3.50
2019-04-01T01:43:41.543Z,3.50
2019-04-01T01:46:08.538Z,3.50
2019-04-01T01:48:35.617Z,3.40
2019-04-01T01:51:03.338Z,3.40
2019-04-01T01:53:30.438Z,3.40
2019-04-01T01:55:58.073Z,3.40
2019-04-01T01:58:25.117Z,3.40
2019-04-01T02:00:54.073Z,3.40
2019-04-01T02:03:21.790Z,3.40
2019-04-01T02:05:48.822Z,3.40
2019-04-01T02:08:16.458Z,3.30
2019-04-01T02:10:43.767Z,3.30
2019-04-01T02:13:10.872Z,3.30
2019-04-01T02:15:37.925Z,3.30
2019-04-01T02:18:05.421Z,3.20
2019-04-01T02:20:32.480Z,3.30
2019-04-01T02:22:59.833Z,3.30
2019-04-01T02:25:27.600Z,3.20
2019-04-01T02:27:54.969Z,3.30
2019-04-01T02:30:22.683Z,3.20
2019-04-01T02:32:50.030Z,3.20
2019-04-01T02:35:18.125Z,3.10
2019-04-01T02:37:45.383Z,3.10
2019-04-01T02:40:12.605Z,3.10
2019-04-01T02:42:39.694Z,3.00
2019-04-01T02:45:08.869Z,3.00
2019-04-01T02:47:36.031Z,3.00
2019-04-01T02:50:03.447Z,2.90
2019-04-01T02:52:30.715Z,2.90
2019-04-01T02:54:57.993Z,2.90
2019-04-01T02:57:24.987Z,2.90
2019-04-01T02:59:52.000Z,2.80
2019-04-01T03:02:19.574Z,2.80
2019-04-01T03:04:46.554Z,2.80
2019-04-01T03:07:16.720Z,2.80
2019-04-01T03:09:43.731Z,2.90
2019-04-01T03:12:10.929Z,2.80
2019-04-01T03:14:37.915Z,2.80
2019-04-01T03:17:04.901Z,2.70
2019-04-01T03:19:31.979Z,2.80
2019-04-01T03:21:59.075Z,2.70
2019-04-01T03:24:26.066Z,2.70
2019-04-01T03:26:53.180Z,2.70
2019-04-01T03:29:20.579Z,2.70
2019-04-01T03:31:47.638Z,2.70
2019-04-01T03:34:15.057Z,2.70
2019-04-01T03:36:42.243Z,2.70
2019-04-01T03:39:09.658Z,2.60
2019-04-01T03:41:36.844Z,2.60
2019-04-01T03:44:04.224Z,2.60
2019-04-01T03:46:31.247Z,2.60
2019-04-01T03:48:58.298Z,2.60
2019-04-01T03:51:25.401Z,2.60
2019-04-01T03:53:52.455Z,2.60
2019-04-01T03:56:19.796Z,2.60
2019-04-01T03:58:46.872Z,2.60
2019-04-01T04:01:13.878Z,2.50
2019-04-01T04:03:41.288Z,2.60
2019-04-01T04:06:08.650Z,2.60
2019-04-01T04:08:35.877Z,2.60
2019-04-01T04:11:03.472Z,2.60
2019-04-01T04:13:30.845Z,2.60
2019-04-01T04:15:58.057Z,2.60
2019-04-01T04:18:25.539Z,2.60
2019-04-01T04:20:52.572Z,2.60
2019-04-01T04:23:19.900Z,2.60
2019-04-01T04:25:49.091Z,2.60
2019-04-01T04:28:16.292Z,2.60
2019-04-01T04:30:43.316Z,2.60
2019-04-01T04:33:10.507Z,2.60
2019-04-01T04:35:37.854Z,2.60
2019-04-01T04:38:05.923Z,2.60
2019-04-01T04:40:32.995Z,2.60
2019-04-01T04:43:00.101Z,2.60
2019-04-01T04:45:28.253Z,2.60
2019-04-01T04:47:55.535Z,2.60
2019-04-01T04:50:22.778Z,2.60
2019-04-01T04:52:50.250Z,2.60
2019-04-01T04:55:17.606Z,2.60
2019-04-01T04:57:44.786Z,2.60
2019-04-01T05:00:12.191Z,2.60
2019-04-01T05:02:40.018Z,2.60
2019-04-01T05:05:07.425Z,2.60
2019-04-01T05:07:34.511Z,2.60
2019-04-01T05:10:01.866Z,2.60
2019-04-01T05:12:29.614Z,2.60
2019-04-01T05:14:57.185Z,2.60
2019-04-01T05:21:16.056Z,2.70
2019-04-01T05:23:44.250Z,2.60
2019-04-01T05:26:11.623Z,2.60
2019-04-01T05:28:41.335Z,2.70
2019-04-01T05:31:14.395Z,2.80
2019-04-01T05:33:54.808Z,2.80
2019-04-01T05:36:14.078Z,2.80
2019-04-01T05:38:41.883Z,2.90
2019-04-01T05:41:10.172Z,2.90
2019-04-01T05:43:37.713Z,3.10
2019-04-01T05:46:05.008Z,3.10
2019-04-01T05:48:32.534Z,3.10
2019-04-01T05:50:59.729Z,3.10
2019-04-01T05:53:26.924Z,3.10
2019-04-01T05:55:54.231Z,3.00
2019-04-01T05:58:21.301Z,3.10
2019-04-01T06:00:55.854Z,3.20
2019-04-01T06:03:23.779Z,3.20
2019-04-01T06:05:50.867Z,3.30
2019-04-01T06:08:17.990Z,3.40
2019-04-01T06:10:45.283Z,3.40
2019-04-01T06:13:12.448Z,3.60
2019-04-01T06:15:39.686Z,3.70
2019-04-01T06:18:06.896Z,3.80
2019-04-01T06:20:34.315Z,3.80
2019-04-01T06:23:01.949Z,3.90
2019-04-01T06:25:29.215Z,4.20
2019-04-01T06:27:56.503Z,4.20
2019-04-01T06:30:23.554Z,4.20
2019-04-01T06:32:50.923Z,4.20
2019-04-01T06:35:18.155Z,4.20
2019-04-01T06:37:45.605Z,4.20
2019-04-01T06:40:13.239Z,4.30
2019-04-01T06:42:40.672Z,4.30
2019-04-01T06:45:08.160Z,4.30
2019-04-01T06:47:35.267Z,4.40
2019-04-01T06:50:03.583Z,4.50
2019-04-01T06:52:30.692Z,4.60
2019-04-01T06:54:58.314Z,4.60
2019-04-01T06:57:25.682Z,4.60
2019-04-01T06:59:53.133Z,4.70
2019-04-01T07:02:20.127Z,4.70
2019-04-01T07:04:47.828Z,4.70
2019-04-01T07:07:19.356Z,4.80
2019-04-01T07:09:44.891Z,4.80
2019-04-01T07:12:12.023Z,4.90
2019-04-01T07:14:39.170Z,5.00
2019-04-01T07:17:06.358Z,5.10
2019-04-01T07:19:33.450Z,5.20
2019-04-01T07:22:00.745Z,5.30
2019-04-01T07:24:27.818Z,5.30
2019-04-01T07:26:55.384Z,5.40
2019-04-01T07:29:23.115Z,5.40
2019-04-01T07:31:50.507Z,5.50
2019-04-01T07:34:17.581Z,5.70
2019-04-01T07:36:44.757Z,5.70
2019-04-01T07:39:12.011Z,5.90
2019-04-01T07:41:39.234Z,5.90
2019-04-01T07:44:06.489Z,5.90
2019-04-01T07:46:34.091Z,6.10
2019-04-01T07:49:01.417Z,6.10
2019-04-01T07:51:28.976Z,6.10
2019-04-01T07:53:56.351Z,6.10
2019-04-01T07:56:24.659Z,6.30
2019-04-01T07:58:52.267Z,6.30
2019-04-01T08:01:19.693Z,6.40
2019-04-01T08:03:47.255Z,6.50
2019-04-01T08:06:14.677Z,6.50
2019-04-01T08:08:41.772Z,6.60
2019-04-01T08:11:08.934Z,6.50
2019-04-01T08:13:36.203Z,6.60
2019-04-01T08:16:03.491Z,6.70
2019-04-01T08:18:33.780Z,6.80
2019-04-01T08:20:59.974Z,7.00
2019-04-01T08:23:27.528Z,7.00
2019-04-01T08:25:54.923Z,7.10
2019-04-01T08:28:23.792Z,7.10
2019-04-01T08:30:51.338Z,7.10
2019-04-01T08:33:18.469Z,7.10
2019-04-01T08:35:46.039Z,7.10
2019-04-01T08:38:13.735Z,7.20
2019-04-01T08:40:41.370Z,7.20
2019-04-01T08:43:08.575Z,7.30
2019-04-01T08:45:36.331Z,7.30
2019-04-01T08:48:03.511Z,7.40
2019-04-01T08:50:30.600Z,7.50
2019-04-01T08:52:57.749Z,7.50
2019-04-01T08:55:25.349Z,7.60
2019-04-01T08:57:52.740Z,7.50
2019-04-01T09:00:20.049Z,7.70
2019-04-01T09:02:47.174Z,7.60
2019-04-01T09:05:14.987Z,7.80
2019-04-01T09:07:42.810Z,7.80
2019-04-01T09:10:10.086Z,7.90
2019-04-01T09:12:37.955Z,8.00
2019-04-01T09:15:05.446Z,8.00
2019-04-01T09:17:32.931Z,8.20
2019-04-01T09:20:01.149Z,8.20
2019-04-01T09:22:28.371Z,8.10
2019-04-01T09:24:55.419Z,7.90
2019-04-01T09:27:22.664Z,7.90
2019-04-01T09:29:49.669Z,7.90
2019-04-01T09:32:16.867Z,8.10
2019-04-01T09:34:44.105Z,8.00
2019-04-01T09:37:11.199Z,8.10
2019-04-01T09:39:38.902Z,8.20
2019-04-01T09:42:06.220Z,8.30
2019-04-01T09:44:37.091Z,8.40
2019-04-01T09:47:02.604Z,8.30
2019-04-01T09:49:29.655Z,8.30
2019-04-01T09:51:57.142Z,8.50
2019-04-01T09:54:25.199Z,8.50
2019-04-01T09:56:52.734Z,8.60
2019-04-01T09:59:20.099Z,8.60
2019-04-01T10:01:47.646Z,8.60
2019-04-01T10:04:15.047Z,8.60
2019-04-01T10:06:42.577Z,8.60
2019-04-01T10:09:09.873Z,8.70
2019-04-01T10:11:37.128Z,8.80
2019-04-01T10:14:04.503Z,9.00
2019-04-01T10:16:31.600Z,9.00
2019-04-01T10:18:58.638Z,9.10
2019-04-01T10:21:25.734Z,9.10
2019-04-01T10:23:53.080Z,9.00
2019-04-01T10:26:20.233Z,9.10
2019-04-01T10:28:47.651Z,8.90
2019-04-01T10:31:14.814Z,8.90
2019-04-01T10:33:41.809Z,9.00
2019-04-01T10:36:09.014Z,9.10
2019-04-01T10:38:37.140Z,9.10
2019-04-01T10:41:04.506Z,9.10
2019-04-01T10:43:31.694Z,9.10
2019-04-01T10:45:58.748Z,9.30
2019-04-01T10:48:26.320Z,9.30
2019-04-01T10:50:53.618Z,9.30
2019-04-01T10:53:20.732Z,9.50
2019-04-01T10:55:48.085Z,9.50
2019-04-01T10:58:15.461Z,9.60
2019-04-01T11:00:43.079Z,9.70
2019-04-01T11:03:10.738Z,9.60
2019-04-01T11:05:38.019Z,9.60
2019-04-01T11:08:05.461Z,9.70
2019-04-01T11:10:32.507Z,9.70
2019-04-01T11:12:59.587Z,9.70
2019-04-01T11:15:26.700Z,9.70
2019-04-01T11:17:53.999Z,9.80
2019-04-01T11:20:21.407Z,9.80
2019-04-01T11:22:48.453Z,9.80
2019-04-01T11:25:15.739Z,9.70
2019-04-01T11:27:43.311Z,9.60
2019-04-01T11:30:13.497Z,9.60
2019-04-01T11:32:40.444Z,9.70
2019-04-01T11:35:08.244Z,9.80
2019-04-01T11:37:35.516Z,9.90
2019-04-01T11:40:03.693Z,10.00
2019-04-01T11:42:30.789Z,10.00
2019-04-01T11:44:58.253Z,10.00
2019-04-01T11:47:25.500Z,10.10
2019-04-01T11:49:52.837Z,10.10
2019-04-01T11:52:20.110Z,10.20
2019-04-01T11:54:47.552Z,10.20
2019-04-01T11:57:14.793Z,10.40
2019-04-01T11:59:41.927Z,10.50
2019-04-01T12:02:09.175Z,10.40
2019-04-01T12:04:36.408Z,10.40
2019-04-01T12:07:04.096Z,10.40
2019-04-01T12:09:31.236Z,10.40
2019-04-01T12:11:58.325Z,10.30
2019-04-01T12:14:25.650Z,10.30
2019-04-01T12:16:52.936Z,10.30
2019-04-01T12:19:20.092Z,10.30
2019-04-01T12:21:47.083Z,10.30
2019-04-01T12:24:14.275Z,10.50
2019-04-01T12:26:41.656Z,10.60
2019-04-01T12:29:11.857Z,10.70
2019-04-01T12:31:37.595Z,10.60
2019-04-01T12:34:04.725Z,10.80
2019-04-01T12:36:34.843Z,10.90
2019-04-01T12:39:02.598Z,10.90
2019-04-01T12:41:31.776Z,11.00
2019-04-01T12:43:58.970Z,11.20
2019-04-01T12:46:26.222Z,11.20
2019-04-01T12:48:53.561Z,11.00
2019-04-01T12:51:21.862Z,10.90
2019-04-01T12:53:49.380Z,11.00
2019-04-01T12:56:16.834Z,11.10
2019-04-01T12:58:44.227Z,11.20
2019-04-01T13:01:11.310Z,11.20
2019-04-01T13:03:38.351Z,11.20
2019-04-01T13:06:05.490Z,11.20
2019-04-01T13:08:34.519Z,11.30
2019-04-01T13:11:01.555Z,11.30
2019-04-01T13:13:28.615Z,11.20
2019-04-01T13:15:55.723Z,11.30
2019-04-01T13:18:22.723Z,11.30
2019-04-01T13:20:51.717Z,11.20
2019-04-01T13:23:18.633Z,11.40
2019-04-01T13:25:46.253Z,11.50
2019-04-01T13:28:13.276Z,11.50
2019-04-01T13:30:40.430Z,11.50
2019-04-01T13:33:07.514Z,11.40
2019-04-01T13:35:34.483Z,11.30
2019-04-01T13:38:01.504Z,11.30
2019-04-01T13:40:29.683Z,11.20
2019-04-01T13:42:56.822Z,11.30
2019-04-01T13:45:28.567Z,11.40
2019-04-01T13:47:53.370Z,11.60
2019-04-01T13:50:20.712Z,11.60
2019-04-01T13:52:49.597Z,11.70
2019-04-01T13:55:16.702Z,11.90
2019-04-01T13:57:44.143Z,11.80
2019-04-01T14:00:11.931Z,11.90
2019-04-01T14:02:39.099Z,11.90
2019-04-01T14:05:06.829Z,11.90
2019-04-01T14:07:35.097Z,11.80
2019-04-01T14:10:02.253Z,11.80
2019-04-01T14:12:29.302Z,11.90
2019-04-01T14:14:56.346Z,11.80
2019-04-01T14:17:23.440Z,11.90
2019-04-01T14:19:50.730Z,12.00
2019-04-01T14:22:17.799Z,12.10
2019-04-01T14:24:45.391Z,12.10
2019-04-01T14:27:12.756Z,12.20
2019-04-01T14:29:39.869Z,12.20
2019-04-01T14:32:07.028Z,12.00
2019-04-01T14:34:35.442Z,12.00
2019-04-01T14:37:04.835Z,12.10
2019-04-01T14:39:34.820Z,12.10
2019-04-01T14:42:00.710Z,12.10
2019-04-01T14:44:27.795Z,12.00
2019-04-01T14:46:55.168Z,12.00
2019-04-01T14:49:22.262Z,12.00
2019-04-01T14:51:49.343Z,12.00
2019-04-01T14:54:16.475Z,12.00
2019-04-01T14:56:43.446Z,12.10
2019-04-01T14:59:10.580Z,12.20
2019-04-01T15:01:37.946Z,12.10
2019-04-01T15:04:05.199Z,12.00
2019-04-01T15:06:32.601Z,11.90
2019-04-01T15:08:59.728Z,12.00
2019-04-01T15:11:27.059Z,12.00
2019-04-01T15:13:54.512Z,12.20
2019-04-01T15:16:21.637Z,12.20
2019-04-01T15:18:48.687Z,12.20
2019-04-01T15:21:16.391Z,12.20
2019-04-01T15:23:43.776Z,12.10
2019-04-01T15:28:51.685Z,12.10
2019-04-01T15:31:18.830Z,12.20
2019-04-01T15:33:46.022Z,12.20
2019-04-01T15:36:13.362Z,12.10
2019-04-01T15:38:40.417Z,12.20
2019-04-01T15:41:07.425Z,12.40
2019-04-01T15:43:34.766Z,12.50
2019-04-01T15:46:04.024Z,12.50
2019-04-01T15:48:30.895Z,12.50
2019-04-01T15:50:57.943Z,12.40
2019-04-01T15:53:24.928Z,12.50
2019-04-01T15:55:51.974Z,12.50
2019-04-01T15:58:19.919Z,12.70
2019-04-01T16:00:47.343Z,12.70
2019-04-01T16:03:14.564Z,13.00
2019-04-01T16:05:41.874Z,13.30
2019-04-01T16:08:14.406Z,13.80
2019-04-01T16:10:42.154Z,14.30
2019-04-01T16:13:09.568Z,14.60
2019-04-01T16:15:38.240Z,15.00
2019-04-01T16:18:05.928Z,15.50
2019-04-01T16:20:34.265Z,15.70
2019-04-01T16:23:01.724Z,16.00
2019-04-01T16:25:29.049Z,15.90
2019-04-01T16:27:56.507Z,15.90
2019-04-01T16:30:23.842Z,15.70
2019-04-01T16:32:50.996Z,15.00
2019-04-01T16:35:18.247Z,14.40
2019-04-01T16:37:45.602Z,14.20
2019-04-01T16:40:12.831Z,13.50
2019-04-01T16:42:39.905Z,13.30
2019-04-01T16:45:07.735Z,12.80
2019-04-01T16:47:35.059Z,12.60
2019-04-01T16:50:02.415Z,12.50
2019-04-01T16:52:30.191Z,12.50
2019-04-01T16:55:00.271Z,12.30
2019-04-01T16:57:29.005Z,12.30
2019-04-01T16:59:57.146Z,12.20
2019-04-01T17:02:24.902Z,12.00
2019-04-01T17:04:52.311Z,11.90
2019-04-01T17:07:19.919Z,11.60
2019-04-01T17:09:47.851Z,11.50
2019-04-01T17:12:15.239Z,11.40
2019-04-01T17:14:42.703Z,11.30
2019-04-01T17:17:10.057Z,11.20
2019-04-01T17:19:37.273Z,11.00
2019-04-01T17:22:04.443Z,10.80
2019-04-01T17:24:31.512Z,10.80
2019-04-01T17:27:05.766Z,10.80
2019-04-01T17:29:32.959Z,10.80
2019-04-01T17:32:00.149Z,10.70
2019-04-01T17:34:27.511Z,10.80
2019-04-01T17:36:55.141Z,10.70
2019-04-01T17:39:22.828Z,10.60
2019-04-01T17:41:49.900Z,10.50
2019-04-01T17:44:17.195Z,10.50
2019-04-01T17:46:44.890Z,10.40
2019-04-01T17:49:11.896Z,10.30
2019-04-01T17:51:39.655Z,10.30
2019-04-01T17:54:06.809Z,10.20
2019-04-01T17:56:34.407Z,10.10
2019-04-01T17:59:02.137Z,10.00
2019-04-01T18:01:29.423Z,10.00
2019-04-01T18:03:56.649Z,9.90
2019-04-01T18:06:23.797Z,9.90
2019-04-01T18:08:51.748Z,9.80
2019-04-01T18:11:19.360Z,9.70
2019-04-01T18:13:46.503Z,9.70
2019-04-01T18:16:14.257Z,9.70
2019-04-01T18:18:41.971Z,9.70
2019-04-01T18:21:09.308Z,9.60
2019-04-01T18:23:36.753Z,9.60
2019-04-01T18:26:04.401Z,9.50
2019-04-01T18:28:31.631Z,9.40
2019-04-01T18:30:59.083Z,9.40
2019-04-01T18:33:26.438Z,9.40
2019-04-01T18:35:55.802Z,9.40
2019-04-01T18:38:23.094Z,9.40
2019-04-01T18:40:50.737Z,9.30
2019-04-01T18:43:17.914Z,9.30
2019-04-01T18:45:45.406Z,9.20
2019-04-01T18:48:14.539Z,9.20
2019-04-01T18:50:43.069Z,9.20
2019-04-01T18:53:11.056Z,9.10
2019-04-01T18:55:38.374Z,9.10
2019-04-01T18:58:05.951Z,9.10
2019-04-01T19:00:33.503Z,9.20
2019-04-01T19:03:00.646Z,9.10
2019-04-01T19:05:27.646Z,9.10
2019-04-01T19:07:54.822Z,9.10
2019-04-01T19:10:22.171Z,9.10
2019-04-01T19:12:49.181Z,9.00
2019-04-01T19:15:16.448Z,9.10
2019-04-01T19:17:44.348Z,9.00
2019-04-01T19:20:11.883Z,8.90
2019-04-01T19:22:39.533Z,8.90
2019-04-01T19:25:07.089Z,8.90
2019-04-01T19:27:34.541Z,8.90
2019-04-01T19:30:01.795Z,8.80
2019-04-01T19:32:28.943Z,8.80
2019-04-01T19:34:56.206Z,8.80
2019-04-01T19:37:23.643Z,8.80
2019-04-01T19:39:52.171Z,8.80
2019-04-01T19:42:19.710Z,8.80
2019-04-01T19:44:47.779Z,8.80
2019-04-01T19:47:15.249Z,8.70
2019-04-01T19:49:43.050Z,8.70
2019-04-01T19:52:10.589Z,8.70
2019-04-01T19:54:37.994Z,8.70
2019-04-01T19:57:05.443Z,8.60
2019-04-01T19:59:35.615Z,8.60
2019-04-01T20:02:02.289Z,8.60
2019-04-01T20:04:29.435Z,8.50
2019-04-01T20:06:56.602Z,8.50
2019-04-01T20:09:24.372Z,8.40
2019-04-01T20:11:52.033Z,8.40
2019-04-01T20:14:19.210Z,8.40
2019-04-01T20:16:47.103Z,8.30
2019-04-01T20:19:16.677Z,8.30
2019-04-01T20:21:43.848Z,8.30
2019-04-01T20:24:11.402Z,8.30
2019-04-01T20:26:38.500Z,8.30
2019-04-01T20:29:05.779Z,8.30
2019-04-01T20:31:33.581Z,8.30
2019-04-01T20:34:00.721Z,8.20
2019-04-01T20:36:29.204Z,8.20
2019-04-01T20:38:57.776Z,8.20
2019-04-01T20:41:24.782Z,8.20
2019-04-01T20:43:51.872Z,8.10
2019-04-01T20:46:22.835Z,8.00
2019-04-01T20:48:50.605Z,8.00
2019-04-01T20:51:19.806Z,8.00
2019-04-01T20:53:47.738Z,8.00
2019-04-01T20:56:17.261Z,8.00
2019-04-01T20:58:46.798Z,8.00
2019-04-01T21:01:13.996Z,8.00
2019-04-01T21:03:41.403Z,7.90
2019-04-01T21:06:08.999Z,7.90
2019-04-01T21:08:38.036Z,8.00
2019-04-01T21:11:05.499Z,7.90
2019-04-01T21:13:32.879Z,7.80
2019-04-01T21:16:00.753Z,7.70
2019-04-01T21:18:28.962Z,7.80
2019-04-01T21:20:56.549Z,7.70
2019-04-01T21:23:23.785Z,7.70
2019-04-01T21:25:51.264Z,7.70
2019-04-01T21:28:19.257Z,7.60
2019-04-01T21:30:46.357Z,7.60
2019-04-01T21:33:14.058Z,7.70
2019-04-01T21:35:41.568Z,7.80
2019-04-01T21:38:08.834Z,7.80
2019-04-01T21:40:35.976Z,7.70
2019-04-01T21:43:03.472Z,7.70
2019-04-01T21:45:30.725Z,7.60
2019-04-01T21:47:57.920Z,7.50
2019-04-01T21:50:25.011Z,7.60
2019-04-01T21:52:53.344Z,7.50
2019-04-01T21:55:20.791Z,7.50
2019-04-01T21:57:47.871Z,7.40
2019-04-01T22:00:25.573Z,7.50
2019-04-01T22:02:54.384Z,7.60
2019-04-01T22:05:21.984Z,7.60
2019-04-01T22:07:49.351Z,7.60
2019-04-01T22:10:16.803Z,7.60
2019-04-01T22:12:44.218Z,7.70
2019-04-01T22:15:11.824Z,7.60
2019-04-01T22:17:39.135Z,7.80
2019-04-01T22:20:06.306Z,7.80
2019-04-01T22:22:33.969Z,7.80
2019-04-01T22:25:01.206Z,7.60
2019-04-01T22:27:28.807Z,7.50
2019-04-01T22:29:55.832Z,7.50
2019-04-01T22:32:22.890Z,7.60
2019-04-01T22:34:50.593Z,7.50
2019-04-01T22:37:26.605Z,7.40
2019-04-01T22:39:46.883Z,7.30
2019-04-01T22:42:14.222Z,7.20
2019-04-01T22:44:41.358Z,7.20
2019-04-01T22:47:08.575Z,7.30
2019-04-01T22:49:36.748Z,7.30
2019-04-01T22:52:03.880Z,7.30
2019-04-01T22:54:31.113Z,7.30
2019-04-01T22:56:58.566Z,7.30
2019-04-01T22:59:25.746Z,7.20
2019-04-01T23:01:52.898Z,7.20
2019-04-01T23:04:19.949Z,7.20
2019-04-01T23:06:47.342Z,7.20
2019-04-01T23:09:14.391Z,7.10
2019-04-01T23:11:41.489Z,7.10
2019-04-01T23:14:08.772Z,7.10
2019-04-01T23:16:35.770Z,7.10
2019-04-01T23:19:03.074Z,7.10
2019-04-01T23:21:31.330Z,7.10
2019-04-01T23:23:59.368Z,7.10
2019-04-01T23:26:27.155Z,7.10
2019-04-01T23:28:54.483Z,7.20
2019-04-01T23:31:21.796Z,7.20
2019-04-01T23:33:48.915Z,7.10
2019-04-01T23:36:16.227Z,7.00
2019-04-01T23:38:43.322Z,7.10
2019-04-01T23:41:10.687Z,7.00
2019-04-01T23:43:37.819Z,7.10
2019-04-01T23:46:04.939Z,7.10
2019-04-01T23:48:31.923Z,7.00
2019-04-01T23:50:58.945Z,7.00
2019-04-01T23:53:26.054Z,6.90
2019-04-01T23:55:53.820Z,7.00
2019-04-01T23:58:22.239Z,7.00
